createdAt,value
2019-03-30T00:00:04.211Z,77.50
2019-03-30T00:02:35.605Z,77.30
2019-03-30T00:05:05.203Z,77.30
2019-03-30T00:07:34.238Z,78.50
2019-03-30T00:10:04.007Z,78.00
2019-03-30T00:12:33.067Z,78.00
2019-03-30T00:15:02.185Z,78.40
2019-03-30T00:17:31.186Z,78.20
2019-03-30T00:20:00.341Z,78.30
2019-03-30T00:22:29.325Z,77.70
2019-03-30T00:24:58.310Z,77.90
2019-03-30T00:27:27.266Z,78.10
2019-03-30T00:29:56.529Z,78.40
2019-03-30T00:32:25.561Z,78.90
2019-03-30T00:34:54.545Z,78.80
2019-03-30T00:37:23.516Z,78.70
2019-03-30T00:39:52.503Z,78.30
2019-03-30T00:42:21.579Z,78.50
2019-03-30T00:44:50.574Z,78.80
2019-03-30T00:47:19.559Z,79.20
2019-03-30T00:49:50.138Z,79.20
2019-03-30T00:52:19.314Z,79.00
2019-03-30T00:54:48.326Z,78.90
2019-03-30T00:57:17.299Z,80.20
2019-03-30T00:59:46.270Z,79.80
2019-03-30T01:02:15.320Z,79.20
2019-03-30T01:04:44.368Z,80.00
2019-03-30T01:07:13.336Z,79.90
2019-03-30T01:09:42.346Z,79.70
2019-03-30T01:12:12.155Z,79.40
2019-03-30T01:14:41.167Z,79.60
2019-03-30T01:17:10.455Z,79.30
2019-03-30T01:19:39.650Z,79.60
2019-03-30T01:22:08.683Z,80.00
2019-03-30T01:24:37.675Z,79.90
2019-03-30T01:27:06.703Z,79.80
2019-03-30T01:29:35.690Z,80.40
2019-03-30T01:32:04.655Z,80.30
2019-03-30T01:34:33.647Z,79.90
2019-03-30T01:37:02.615Z,80.00
2019-03-30T01:39:31.602Z,80.00
2019-03-30T01:42:00.571Z,80.20
2019-03-30T01:44:29.624Z,80.70
2019-03-30T01:46:58.614Z,80.70
2019-03-30T01:49:27.606Z,80.80
2019-03-30T01:51:56.569Z,80.50
2019-03-30T01:54:25.670Z,80.30
2019-03-30T01:56:54.641Z,81.00
2019-03-30T01:59:23.747Z,80.90
2019-03-30T02:01:52.778Z,81.20
2019-03-30T02:04:21.837Z,81.40
2019-03-30T02:06:51.015Z,80.90
2019-03-30T02:09:19.997Z,81.10
2019-03-30T02:11:48.980Z,80.90
2019-03-30T02:14:17.962Z,80.90
2019-03-30T02:16:46.935Z,81.00
2019-03-30T02:19:15.983Z,80.90
2019-03-30T02:21:44.951Z,81.00
2019-03-30T02:24:13.979Z,81.20
2019-03-30T02:26:42.961Z,80.80
2019-03-30T02:29:11.994Z,81.00
2019-03-30T02:31:41.056Z,81.40
2019-03-30T02:34:10.023Z,81.10
2019-03-30T02:36:39.109Z,81.40
2019-03-30T02:39:08.139Z,81.10
2019-03-30T02:41:37.118Z,81.30
2019-03-30T02:44:06.195Z,82.30
2019-03-30T02:46:35.168Z,82.30
2019-03-30T02:49:04.282Z,82.80
2019-03-30T02:51:33.257Z,82.30
2019-03-30T02:54:02.233Z,82.60
2019-03-30T02:56:31.215Z,83.00
2019-03-30T02:59:00.273Z,83.30
2019-03-30T03:01:29.276Z,83.10
2019-03-30T03:03:58.319Z,84.00
2019-03-30T03:06:27.307Z,82.60
2019-03-30T03:08:56.268Z,83.30
2019-03-30T03:11:25.254Z,83.30
2019-03-30T03:13:54.259Z,83.90
2019-03-30T03:16:27.031Z,84.10
2019-03-30T03:18:53.912Z,83.50
2019-03-30T03:21:22.896Z,85.10
2019-03-30T03:23:51.859Z,84.70
2019-03-30T03:26:20.948Z,85.40
2019-03-30T03:28:49.920Z,84.90
2019-03-30T03:31:19.002Z,84.30
2019-03-30T03:33:48.019Z,84.90
2019-03-30T03:36:17.002Z,84.00
2019-03-30T03:38:45.969Z,84.80
2019-03-30T03:41:14.952Z,85.90
2019-03-30T03:43:43.986Z,85.60
2019-03-30T03:46:12.970Z,86.30
2019-03-30T03:48:41.969Z,86.70
2019-03-30T03:51:25.111Z,86.10
2019-03-30T03:53:42.390Z,86.80
2019-03-30T03:56:13.981Z,86.50
2019-03-30T03:58:45.226Z,86.00
2019-03-30T04:01:17.543Z,87.10
2019-03-30T04:03:49.759Z,86.40
2019-03-30T04:06:21.764Z,87.00
2019-03-30T04:08:53.731Z,86.70
2019-03-30T04:11:24.310Z,86.80
2019-03-30T04:13:54.526Z,87.00
2019-03-30T04:16:23.595Z,86.70
2019-03-30T04:18:52.556Z,86.60
2019-03-30T04:21:21.537Z,87.20
2019-03-30T04:23:54.016Z,86.60
2019-03-30T04:26:21.207Z,86.50
2019-03-30T04:28:50.407Z,87.10
2019-03-30T04:31:19.491Z,86.50
2019-03-30T04:33:48.533Z,86.70
2019-03-30T04:36:17.506Z,87.30
2019-03-30T04:38:46.467Z,87.50
2019-03-30T04:41:15.468Z,87.20
2019-03-30T04:43:44.426Z,87.70
2019-03-30T04:46:13.482Z,87.30
2019-03-30T04:48:42.447Z,88.50
2019-03-30T04:51:11.468Z,87.80
2019-03-30T04:53:40.438Z,87.60
2019-03-30T04:56:09.411Z,87.70
2019-03-30T04:58:38.448Z,88.30
2019-03-30T05:01:07.572Z,88.40
2019-03-30T05:03:36.538Z,88.70
2019-03-30T05:06:05.551Z,88.00
2019-03-30T05:08:34.529Z,89.30
2019-03-30T05:11:03.490Z,88.80
2019-03-30T05:13:32.451Z,88.80
2019-03-30T05:16:01.726Z,88.30
2019-03-30T05:18:30.687Z,89.00
2019-03-30T05:20:59.719Z,88.30
2019-03-30T05:23:28.680Z,88.80
2019-03-30T05:25:57.661Z,89.40
2019-03-30T05:28:26.633Z,89.50
2019-03-30T05:30:55.611Z,88.80
2019-03-30T05:33:24.582Z,89.60
2019-03-30T05:35:53.570Z,90.00
2019-03-30T05:38:22.530Z,89.80
2019-03-30T05:40:51.495Z,90.10
2019-03-30T05:43:20.490Z,90.40
2019-03-30T05:45:50.439Z,90.50
2019-03-30T05:48:19.457Z,90.10
2019-03-30T05:50:48.425Z,90.20
2019-03-30T05:53:17.409Z,90.30
2019-03-30T05:55:46.552Z,90.60
2019-03-30T05:58:15.509Z,90.20
2019-03-30T06:00:44.494Z,90.60
2019-03-30T06:03:13.480Z,90.70
2019-03-30T06:05:42.445Z,90.80
2019-03-30T06:08:11.488Z,91.00
2019-03-30T06:10:40.580Z,90.90
2019-03-30T06:13:09.586Z,90.70
2019-03-30T06:15:38.570Z,90.40
2019-03-30T06:18:07.550Z,90.90
2019-03-30T06:20:36.507Z,90.50
2019-03-30T06:23:05.486Z,90.40
2019-03-30T06:25:34.619Z,90.20
2019-03-30T06:28:03.647Z,90.20
2019-03-30T06:30:32.679Z,91.10
2019-03-30T06:33:01.817Z,91.10
2019-03-30T06:35:31.007Z,91.50
2019-03-30T06:37:59.997Z,91.70
2019-03-30T06:40:29.063Z,91.50
2019-03-30T06:42:58.070Z,91.60
2019-03-30T06:45:27.043Z,91.70
2019-03-30T06:47:56.067Z,91.60
2019-03-30T06:50:25.290Z,91.70
2019-03-30T06:52:58.082Z,91.60
2019-03-30T06:55:24.954Z,91.40
2019-03-30T06:57:54.026Z,91.00
2019-03-30T07:00:34.363Z,91.00
2019-03-30T07:03:05.211Z,90.70
2019-03-30T07:05:38.934Z,90.20
2019-03-30T07:08:11.334Z,90.10
2019-03-30T07:10:40.617Z,89.70
2019-03-30T07:13:09.694Z,90.00
2019-03-30T07:15:46.542Z,89.20
2019-03-30T07:18:16.735Z,87.40
2019-03-30T07:20:45.889Z,87.60
2019-03-30T07:23:15.066Z,88.00
2019-03-30T07:25:44.153Z,87.40
2019-03-30T07:28:13.135Z,86.30
2019-03-30T07:30:42.118Z,86.60
2019-03-30T07:33:11.102Z,86.50
2019-03-30T07:35:40.086Z,85.00
2019-03-30T07:38:09.059Z,84.30
2019-03-30T07:40:38.107Z,83.20
2019-03-30T07:43:07.219Z,83.60
2019-03-30T07:45:36.306Z,82.10
2019-03-30T07:48:05.466Z,84.70
2019-03-30T07:50:34.594Z,84.20
2019-03-30T07:53:03.647Z,84.00
2019-03-30T07:55:32.662Z,83.70
2019-03-30T07:58:01.705Z,84.00
2019-03-30T08:00:31.184Z,81.20
2019-03-30T08:03:00.385Z,81.70
2019-03-30T08:05:29.375Z,82.30
2019-03-30T08:07:58.374Z,83.00
2019-03-30T08:10:27.454Z,83.50
2019-03-30T08:12:56.473Z,83.10
2019-03-30T08:15:25.521Z,81.50
2019-03-30T08:17:54.572Z,80.70
2019-03-30T08:20:23.538Z,78.50
2019-03-30T08:22:52.549Z,79.40
2019-03-30T08:25:21.523Z,80.20
2019-03-30T08:27:50.516Z,80.00
2019-03-30T08:30:19.600Z,78.20
2019-03-30T08:32:48.570Z,78.70
2019-03-30T08:35:17.533Z,78.00
2019-03-30T08:37:46.522Z,76.30
2019-03-30T08:40:15.590Z,78.30
2019-03-30T08:42:44.562Z,78.70
2019-03-30T08:45:13.796Z,77.60
2019-03-30T08:47:42.778Z,77.20
2019-03-30T08:50:12.483Z,76.30
2019-03-30T08:52:41.456Z,76.50
2019-03-30T08:55:10.877Z,76.90
2019-03-30T08:57:40.447Z,77.10
2019-03-30T09:00:09.857Z,76.70
2019-03-30T09:02:38.978Z,76.50
2019-03-30T09:05:08.306Z,76.30
2019-03-30T09:07:37.379Z,76.40
2019-03-30T09:10:08.194Z,75.00
2019-03-30T09:12:37.174Z,75.50
2019-03-30T09:15:07.307Z,73.90
2019-03-30T09:17:37.458Z,75.80
2019-03-30T09:20:08.404Z,74.80
2019-03-30T09:22:37.439Z,76.60
2019-03-30T09:25:06.962Z,74.10
2019-03-30T09:27:35.954Z,72.90
2019-03-30T09:30:08.248Z,71.80
2019-03-30T09:32:37.370Z,73.80
2019-03-30T09:35:08.290Z,71.10
2019-03-30T09:37:37.281Z,72.70
2019-03-30T09:40:08.109Z,72.50
2019-03-30T09:42:37.446Z,73.50
2019-03-30T09:45:07.758Z,73.10
2019-03-30T09:47:36.755Z,74.70
2019-03-30T09:50:07.951Z,72.00
2019-03-30T09:52:37.087Z,71.40
2019-03-30T09:55:07.196Z,69.40
2019-03-30T09:57:36.288Z,68.90
2019-03-30T10:00:06.607Z,69.00
2019-03-30T10:02:35.697Z,70.30
2019-03-30T10:05:05.618Z,69.60
2019-03-30T10:07:34.611Z,68.80
2019-03-30T10:10:04.730Z,68.50
2019-03-30T10:12:33.790Z,69.90
2019-03-30T10:15:03.009Z,68.40
2019-03-30T10:17:32.011Z,67.30
2019-03-30T10:20:04.738Z,67.30
2019-03-30T10:22:31.668Z,66.20
2019-03-30T10:25:00.746Z,66.90
2019-03-30T10:27:29.921Z,69.50
2019-03-30T10:29:58.987Z,70.00
2019-03-30T10:32:27.987Z,68.80
2019-03-30T10:34:56.977Z,68.40
2019-03-30T10:37:26.033Z,66.30
2019-03-30T10:39:54.989Z,68.80
2019-03-30T10:42:24.022Z,67.10
2019-03-30T10:44:53.004Z,67.50
2019-03-30T10:47:22.168Z,65.90
2019-03-30T10:49:51.217Z,63.80
2019-03-30T10:52:20.218Z,63.30
2019-03-30T10:54:53.020Z,63.30
2019-03-30T10:57:20.157Z,64.60
2019-03-30T10:59:49.140Z,65.10
2019-03-30T11:02:18.214Z,64.50
2019-03-30T11:04:47.231Z,66.10
2019-03-30T11:07:16.372Z,63.00
2019-03-30T11:09:45.358Z,64.80
2019-03-30T11:12:14.366Z,62.00
2019-03-30T11:14:43.329Z,64.60
2019-03-30T11:17:12.447Z,64.90
2019-03-30T11:19:41.422Z,62.50
2019-03-30T11:22:10.434Z,64.30
2019-03-30T11:24:39.413Z,62.90
2019-03-30T11:27:08.544Z,62.50
2019-03-30T11:29:37.515Z,63.40
2019-03-30T11:32:06.506Z,61.30
2019-03-30T11:34:35.589Z,59.90
2019-03-30T11:37:05.024Z,60.10
2019-03-30T11:39:33.998Z,60.80
2019-03-30T11:42:03.047Z,59.00
2019-03-30T11:44:32.041Z,58.70
2019-03-30T11:47:01.571Z,58.60
2019-03-30T11:49:30.634Z,58.70
2019-03-30T11:51:59.629Z,58.20
2019-03-30T11:54:28.674Z,56.60
2019-03-30T11:56:57.671Z,58.60
2019-03-30T11:59:26.655Z,57.50
2019-03-30T12:01:55.638Z,57.10
2019-03-30T12:04:24.631Z,58.70
2019-03-30T12:06:53.731Z,58.40
2019-03-30T12:09:22.795Z,57.50
2019-03-30T12:11:51.851Z,57.90
2019-03-30T12:14:20.835Z,55.90
2019-03-30T12:16:49.815Z,55.80
2019-03-30T12:19:18.813Z,56.40
2019-03-30T12:21:47.791Z,55.60
2019-03-30T12:24:16.780Z,55.60
2019-03-30T12:26:45.766Z,56.00
2019-03-30T12:29:14.887Z,55.60
2019-03-30T12:31:43.867Z,55.00
2019-03-30T12:34:13.318Z,54.50
2019-03-30T12:36:42.369Z,55.20
2019-03-30T12:39:11.363Z,55.70
2019-03-30T12:41:40.335Z,54.20
2019-03-30T12:44:09.325Z,54.50
2019-03-30T12:46:38.323Z,55.00
2019-03-30T12:49:07.550Z,54.40
2019-03-30T12:51:36.551Z,54.50
2019-03-30T12:54:05.520Z,54.50
2019-03-30T12:56:34.513Z,53.30
2019-03-30T12:59:03.570Z,53.50
2019-03-30T13:01:32.548Z,54.00
2019-03-30T13:04:01.542Z,51.50
2019-03-30T13:06:30.600Z,50.50
2019-03-30T13:08:59.605Z,52.00
2019-03-30T13:11:28.631Z,52.80
2019-03-30T13:13:57.617Z,51.30
2019-03-30T13:16:26.590Z,52.00
2019-03-30T13:18:55.647Z,52.30
2019-03-30T13:21:24.690Z,50.90
2019-03-30T13:23:53.799Z,51.60
2019-03-30T13:26:22.899Z,50.70
2019-03-30T13:28:51.901Z,50.40
2019-03-30T13:31:20.878Z,52.70
2019-03-30T13:33:49.879Z,53.30
2019-03-30T13:36:20.507Z,53.60
2019-03-30T13:38:49.497Z,52.90
2019-03-30T13:41:18.474Z,52.80
2019-03-30T13:43:47.459Z,53.90
2019-03-30T13:46:16.435Z,53.40
2019-03-30T13:48:45.418Z,52.60
2019-03-30T13:51:14.390Z,51.70
2019-03-30T13:53:43.462Z,51.90
2019-03-30T13:56:17.378Z,52.30
2019-03-30T13:58:43.362Z,52.30
2019-03-30T14:01:12.375Z,52.80
2019-03-30T14:03:41.425Z,52.50
2019-03-30T14:06:10.399Z,52.00
2019-03-30T14:08:39.393Z,52.60
2019-03-30T14:11:08.509Z,51.60
2019-03-30T14:13:37.483Z,51.80
2019-03-30T14:16:06.613Z,52.00
2019-03-30T14:18:36.371Z,51.70
2019-03-30T14:21:05.348Z,52.00
2019-03-30T14:23:34.510Z,52.00
2019-03-30T14:26:03.491Z,52.50
2019-03-30T14:28:32.474Z,51.80
2019-03-30T14:31:01.488Z,51.20
2019-03-30T14:33:30.477Z,50.80
2019-03-30T14:35:59.455Z,50.40
2019-03-30T14:38:28.458Z,50.50
2019-03-30T14:40:57.435Z,50.90
2019-03-30T14:43:26.416Z,50.90
2019-03-30T14:45:55.455Z,50.70
2019-03-30T14:48:24.453Z,51.20
2019-03-30T14:50:53.426Z,50.50
2019-03-30T14:53:22.678Z,50.60
2019-03-30T14:55:51.918Z,50.10
2019-03-30T14:58:21.398Z,49.60
2019-03-30T15:00:50.391Z,50.10
2019-03-30T15:03:19.428Z,49.80
2019-03-30T15:05:48.486Z,49.60
2019-03-30T15:08:17.450Z,50.30
2019-03-30T15:10:46.434Z,49.80
2019-03-30T15:13:15.416Z,49.20
2019-03-30T15:15:44.474Z,49.50
2019-03-30T15:18:13.715Z,49.80
2019-03-30T15:20:42.879Z,49.80
2019-03-30T15:23:11.863Z,49.70
2019-03-30T15:25:41.037Z,49.90
2019-03-30T15:28:10.154Z,50.00
2019-03-30T15:30:39.301Z,49.80
2019-03-30T15:33:08.362Z,50.40
2019-03-30T15:35:37.348Z,49.60
2019-03-30T15:38:06.330Z,49.50
2019-03-30T15:40:35.446Z,49.80
2019-03-30T15:43:04.489Z,50.30
2019-03-30T15:45:33.499Z,50.10
2019-03-30T15:48:02.479Z,51.20
2019-03-30T15:50:31.479Z,50.40
2019-03-30T15:53:00.456Z,51.20
2019-03-30T15:55:29.562Z,50.80
2019-03-30T15:57:58.569Z,49.80
2019-03-30T16:00:27.558Z,49.60
2019-03-30T16:02:56.618Z,49.40
2019-03-30T16:05:25.597Z,49.30
2019-03-30T16:07:54.631Z,49.00
2019-03-30T16:10:23.699Z,48.80
2019-03-30T16:12:52.691Z,49.30
2019-03-30T16:15:21.655Z,49.10
2019-03-30T16:17:50.646Z,48.90
2019-03-30T16:20:19.669Z,46.70
2019-03-30T16:22:48.918Z,46.70
2019-03-30T16:25:17.899Z,45.20
2019-03-30T16:27:46.892Z,45.30
2019-03-30T16:30:16.103Z,46.60
2019-03-30T16:32:45.224Z,46.30
2019-03-30T16:35:14.257Z,45.40
2019-03-30T16:37:43.236Z,44.60
2019-03-30T16:40:12.717Z,44.30
2019-03-30T16:42:41.809Z,45.40
2019-03-30T16:45:11.314Z,45.30
2019-03-30T16:47:40.290Z,45.00
2019-03-30T16:50:09.888Z,43.80
2019-03-30T16:52:41.029Z,43.90
2019-03-30T16:55:09.807Z,44.80
2019-03-30T16:57:43.658Z,44.60
2019-03-30T17:00:10.163Z,45.50
2019-03-30T17:02:39.151Z,44.20
2019-03-30T17:05:09.374Z,44.80
2019-03-30T17:07:38.458Z,44.30
2019-03-30T17:10:09.458Z,43.40
2019-03-30T17:12:38.542Z,44.80
2019-03-30T17:15:07.970Z,45.00
2019-03-30T17:17:36.935Z,43.60
2019-03-30T17:20:07.945Z,43.30
2019-03-30T17:22:36.942Z,43.40
2019-03-30T17:25:06.969Z,43.40
2019-03-30T17:27:36.514Z,42.60
2019-03-30T17:30:08.120Z,43.20
2019-03-30T17:32:37.123Z,44.80
2019-03-30T17:35:06.826Z,44.20
2019-03-30T17:37:35.814Z,43.80
2019-03-30T17:40:25.638Z,44.40
2019-03-30T17:42:54.662Z,44.20
2019-03-30T17:45:23.693Z,43.50
2019-03-30T17:47:52.748Z,45.50
2019-03-30T17:50:21.797Z,43.70
2019-03-30T17:52:50.839Z,44.10
2019-03-30T17:55:33.138Z,45.70
2019-03-30T17:57:50.662Z,45.80
2019-03-30T18:00:20.756Z,45.70
2019-03-30T18:02:49.755Z,47.10
2019-03-30T18:05:18.766Z,47.30
2019-03-30T18:07:47.771Z,47.70
2019-03-30T18:10:16.882Z,48.10
2019-03-30T18:12:45.885Z,48.40
2019-03-30T18:15:15.222Z,47.00
2019-03-30T18:17:44.282Z,48.40
2019-03-30T18:20:13.499Z,47.90
2019-03-30T18:22:42.479Z,48.00
2019-03-30T18:25:11.801Z,49.00
2019-03-30T18:27:40.781Z,49.50
2019-03-30T18:30:10.798Z,49.60
2019-03-30T18:32:40.722Z,47.90
2019-03-30T18:35:11.226Z,48.90
2019-03-30T18:37:40.490Z,49.00
2019-03-30T18:40:12.687Z,49.20
2019-03-30T18:42:42.150Z,50.30
2019-03-30T18:45:14.210Z,50.20
2019-03-30T18:47:43.379Z,50.30
2019-03-30T18:50:12.419Z,51.00
2019-03-30T18:52:41.645Z,51.30
2019-03-30T18:55:13.839Z,50.90
2019-03-30T18:57:42.820Z,51.80
2019-03-30T19:00:14.879Z,51.30
2019-03-30T19:02:43.845Z,51.70
2019-03-30T19:05:13.062Z,51.70
2019-03-30T19:07:42.037Z,51.80
2019-03-30T19:10:11.447Z,52.70
2019-03-30T19:12:40.502Z,52.50
2019-03-30T19:15:09.936Z,52.90
2019-03-30T19:17:38.934Z,52.40
2019-03-30T19:20:08.272Z,52.70
2019-03-30T19:22:37.243Z,53.40
2019-03-30T19:25:07.689Z,52.90
2019-03-30T19:27:36.801Z,53.50
2019-03-30T19:30:08.022Z,53.50
2019-03-30T19:32:37.006Z,54.10
2019-03-30T19:35:08.630Z,53.90
2019-03-30T19:37:37.695Z,54.20
2019-03-30T19:40:07.205Z,54.20
2019-03-30T19:42:36.274Z,55.00
2019-03-30T19:45:07.796Z,55.30
2019-03-30T19:47:36.766Z,54.90
2019-03-30T19:50:07.252Z,54.90
2019-03-30T19:52:40.104Z,54.70
2019-03-30T19:55:07.408Z,54.60
2019-03-30T19:57:36.388Z,55.10
2019-03-30T20:00:08.463Z,55.20
2019-03-30T20:02:37.643Z,54.80
2019-03-30T20:05:08.188Z,54.90
2019-03-30T20:07:37.167Z,55.10
2019-03-30T20:10:06.814Z,55.00
2019-03-30T20:12:36.221Z,55.70
2019-03-30T20:15:06.953Z,55.60
2019-03-30T20:17:36.010Z,54.80
2019-03-30T20:20:06.856Z,55.20
2019-03-30T20:22:35.816Z,54.80
2019-03-30T20:25:07.259Z,55.00
2019-03-30T20:27:36.412Z,56.20
2019-03-30T20:30:07.430Z,56.40
2019-03-30T20:32:36.570Z,56.40
2019-03-30T20:35:08.160Z,56.50
2019-03-30T20:37:37.227Z,56.80
2019-03-30T20:40:07.657Z,57.20
2019-03-30T20:42:36.709Z,56.70
2019-03-30T20:45:07.729Z,57.20
2019-03-30T20:47:36.924Z,57.00
2019-03-30T20:50:07.942Z,57.40
2019-03-30T20:52:37.050Z,57.50
2019-03-30T20:55:06.774Z,57.50
2019-03-30T20:57:35.829Z,57.40
2019-03-30T21:00:07.868Z,57.20
2019-03-30T21:02:36.870Z,57.50
2019-03-30T21:05:06.717Z,57.20
2019-03-30T21:07:35.694Z,57.60
2019-03-30T21:10:08.649Z,57.30
2019-03-30T21:12:37.828Z,57.60
2019-03-30T21:15:07.138Z,58.10
2019-03-30T21:17:36.179Z,58.10
2019-03-30T21:20:09.306Z,57.60
2019-03-30T21:22:38.285Z,58.10
2019-03-30T21:25:07.602Z,58.40
2019-03-30T21:27:36.643Z,58.90
2019-03-30T21:30:08.486Z,58.70
2019-03-30T21:32:37.540Z,59.10
2019-03-30T21:35:07.853Z,59.10
2019-03-30T21:37:36.899Z,59.30
2019-03-30T21:40:06.915Z,59.10
2019-03-30T21:42:36.005Z,59.50
2019-03-30T21:45:07.149Z,59.30
2019-03-30T21:47:36.457Z,59.30
2019-03-30T21:50:08.177Z,59.90
2019-03-30T21:52:37.151Z,59.70
2019-03-30T21:55:06.806Z,60.00
2019-03-30T21:57:35.943Z,59.80
2019-03-30T22:00:10.275Z,59.90
2019-03-30T22:02:37.576Z,60.40
2019-03-30T22:05:07.008Z,60.30
2019-03-30T22:07:36.753Z,60.40
2019-03-30T22:10:09.579Z,60.60
2019-03-30T22:12:41.876Z,60.70
2019-03-30T22:15:11.383Z,61.00
2019-03-30T22:17:40.346Z,60.70
2019-03-30T22:20:09.606Z,61.20
2019-03-30T22:22:38.578Z,61.30
2019-03-30T22:25:07.638Z,61.60
2019-03-30T22:27:36.598Z,62.30
2019-03-30T22:30:07.219Z,62.30
2019-03-30T22:32:36.194Z,62.50
2019-03-30T22:35:05.825Z,62.70
2019-03-30T22:37:34.913Z,63.30
2019-03-30T22:40:05.121Z,63.60
2019-03-30T22:42:34.110Z,63.50
2019-03-30T22:45:04.212Z,63.90
2019-03-30T22:47:33.254Z,63.90
2019-03-30T22:50:02.253Z,63.50
2019-03-30T22:52:31.214Z,64.10
2019-03-30T22:55:00.267Z,65.10
2019-03-30T22:57:29.670Z,63.40
2019-03-30T22:59:58.644Z,64.00
2019-03-30T23:02:27.926Z,63.70
2019-03-30T23:04:56.996Z,63.60
2019-03-30T23:07:25.996Z,64.00
2019-03-30T23:09:54.985Z,65.00
2019-03-30T23:12:23.963Z,65.60
2019-03-30T23:14:52.929Z,66.10
2019-03-30T23:17:21.918Z,65.60
2019-03-30T23:19:50.887Z,65.70
2019-03-30T23:22:19.884Z,65.50
2019-03-30T23:24:48.868Z,65.50
2019-03-30T23:27:17.860Z,65.40
2019-03-30T23:29:46.819Z,65.90
2019-03-30T23:32:15.818Z,65.40
2019-03-30T23:34:44.778Z,65.90
2019-03-30T23:37:13.875Z,65.60
2019-03-30T23:39:43.106Z,65.10
2019-03-30T23:42:12.131Z,65.90
2019-03-30T23:44:41.091Z,65.40
2019-03-30T23:47:10.079Z,65.70
2019-03-30T23:49:39.114Z,65.80
2019-03-30T23:52:08.097Z,66.80
2019-03-30T23:54:37.568Z,66.90
2019-03-30T23:57:06.615Z,66.50
2019-03-30T23:59:35.590Z,67.30
